createdAt,value
2022-10-22T00:00:18.101Z,15.35
2022-10-22T00:01:18.106Z,15.31
2022-10-22T00:02:18.134Z,15.31
2022-10-22T00:03:18.057Z,15.30
2022-10-22T00:04:18.036Z,15.30
2022-10-22T00:05:18.039Z,15.33
2022-10-22T00:06:18.029Z,15.30
2022-10-22T00:07:17.997Z,15.31
2022-10-22T00:08:18.017Z,15.30
2022-10-22T00:09:17.994Z,15.28
2022-10-22T00:10:17.957Z,15.26
2022-10-22T00:11:17.957Z,15.27
2022-10-22T00:12:17.929Z,15.27
2022-10-22T00:13:17.926Z,15.28
2022-10-22T00:14:17.898Z,15.27
2022-10-22T00:15:17.893Z,15.27
2022-10-22T00:16:17.890Z,15.27
2022-10-22T00:17:17.867Z,15.27
2022-10-22T00:18:17.841Z,15.23
2022-10-22T00:19:17.840Z,15.21
2022-10-22T00:20:17.820Z,15.20
2022-10-22T00:21:17.821Z,15.23
2022-10-22T00:22:17.793Z,15.24
2022-10-22T00:23:17.786Z,15.23
2022-10-22T00:24:17.776Z,15.24
2022-10-22T00:25:17.761Z,15.23
2022-10-22T00:26:17.766Z,15.23
2022-10-22T00:27:17.741Z,15.20
2022-10-22T00:28:17.710Z,15.21
2022-10-22T00:29:17.703Z,15.21
2022-10-22T00:30:17.687Z,15.23
2022-10-22T00:31:17.758Z,15.21
2022-10-22T00:32:17.663Z,15.23
2022-10-22T00:33:17.652Z,15.23
2022-10-22T00:34:17.631Z,15.24
2022-10-22T00:35:17.618Z,15.26
2022-10-22T00:36:17.622Z,15.26
2022-10-22T00:37:17.595Z,15.24
2022-10-22T00:38:17.572Z,15.24
2022-10-22T00:39:17.562Z,15.26
2022-10-22T00:40:17.544Z,15.24
2022-10-22T00:41:17.556Z,15.26
2022-10-22T00:42:17.516Z,15.28
2022-10-22T00:43:17.514Z,15.28
2022-10-22T00:44:17.494Z,15.28
2022-10-22T00:45:17.484Z,15.27
2022-10-22T00:46:17.465Z,15.31
2022-10-22T00:47:17.466Z,15.31
2022-10-22T00:48:17.446Z,15.31
2022-10-22T00:49:17.427Z,15.30
2022-10-22T00:50:17.419Z,15.31
2022-10-22T00:51:17.395Z,15.35
2022-10-22T00:52:17.406Z,15.35
2022-10-22T00:53:17.375Z,15.35
2022-10-22T00:54:17.357Z,15.36
2022-10-22T00:55:17.345Z,15.33
2022-10-22T00:56:17.343Z,15.36
2022-10-22T00:57:17.317Z,15.38
2022-10-22T00:58:17.297Z,15.38
2022-10-22T00:59:17.289Z,15.38
2022-10-22T01:00:17.278Z,15.36
2022-10-22T01:01:17.321Z,15.41
2022-10-22T01:02:17.247Z,15.41
2022-10-22T01:03:17.238Z,15.41
2022-10-22T01:04:17.246Z,15.41
2022-10-22T01:05:17.207Z,15.41
2022-10-22T01:06:17.200Z,15.38
2022-10-22T01:07:17.178Z,15.41
2022-10-22T01:08:17.173Z,15.41
2022-10-22T01:09:17.164Z,15.36
2022-10-22T01:10:17.139Z,15.39
2022-10-22T01:11:17.139Z,15.41
2022-10-22T01:12:17.111Z,15.38
2022-10-22T01:13:17.108Z,15.36
2022-10-22T01:14:17.079Z,15.38
2022-10-22T01:15:17.071Z,15.33
2022-10-22T01:16:17.071Z,15.36
2022-10-22T01:17:17.116Z,15.35
2022-10-22T01:18:17.034Z,15.31
2022-10-22T01:19:17.023Z,15.31
2022-10-22T01:20:17.029Z,15.31
2022-10-22T01:21:17.008Z,15.33
2022-10-22T01:22:16.970Z,15.30
2022-10-22T01:23:16.969Z,15.30
2022-10-22T01:24:16.951Z,15.27
2022-10-22T01:25:16.942Z,15.27
2022-10-22T01:26:17.009Z,15.28
2022-10-22T01:27:16.912Z,15.30
2022-10-22T01:28:16.900Z,15.28
2022-10-22T01:29:16.884Z,15.27
2022-10-22T01:30:16.862Z,15.23
2022-10-22T01:31:16.873Z,15.28
2022-10-22T01:32:16.845Z,15.28
2022-10-22T01:33:16.833Z,15.27
2022-10-22T01:34:16.821Z,15.23
2022-10-22T01:35:16.803Z,15.24
2022-10-22T01:36:16.803Z,15.26
2022-10-22T01:37:16.775Z,15.26
2022-10-22T01:38:16.754Z,15.26
2022-10-22T01:39:16.773Z,15.24
2022-10-22T01:40:16.732Z,15.23
2022-10-22T01:41:16.743Z,15.23
2022-10-22T01:42:16.706Z,15.24
2022-10-22T01:43:16.708Z,15.24
2022-10-22T01:44:16.686Z,15.20
2022-10-22T01:45:16.694Z,15.21
2022-10-22T01:46:16.729Z,15.23
2022-10-22T01:47:16.646Z,15.23
2022-10-22T01:48:16.629Z,15.21
2022-10-22T01:49:16.612Z,15.23
2022-10-22T01:50:16.596Z,15.23
2022-10-22T01:51:16.597Z,15.24
2022-10-22T01:52:16.576Z,15.26
2022-10-22T01:53:16.557Z,15.21
2022-10-22T01:54:16.547Z,15.21
2022-10-22T01:55:16.528Z,15.21
2022-10-22T01:56:16.539Z,15.24
2022-10-22T01:57:16.499Z,15.24
2022-10-22T01:58:16.488Z,15.23
2022-10-22T01:59:16.467Z,15.23
2022-10-22T02:00:16.459Z,15.21
2022-10-22T02:01:16.488Z,15.23
2022-10-22T02:02:16.437Z,15.23
2022-10-22T02:03:18.675Z,15.26
2022-10-22T02:04:16.409Z,15.24
2022-10-22T02:05:16.397Z,15.24
2022-10-22T02:06:16.402Z,15.27
2022-10-22T02:07:16.370Z,15.27
2022-10-22T02:08:16.374Z,15.30
2022-10-22T02:09:16.437Z,15.28
2022-10-22T02:10:16.330Z,15.28
2022-10-22T02:11:16.333Z,15.30
2022-10-22T02:12:16.304Z,15.27
2022-10-22T02:13:16.292Z,15.28
2022-10-22T02:14:16.280Z,15.31
2022-10-22T02:15:16.260Z,15.31
2022-10-22T02:16:16.266Z,15.33
2022-10-22T02:17:16.249Z,15.35
2022-10-22T02:18:16.212Z,15.35
2022-10-22T02:19:16.202Z,15.36
2022-10-22T02:20:16.209Z,15.33
2022-10-22T02:21:16.203Z,15.31
2022-10-22T02:22:16.164Z,15.33
2022-10-22T02:23:16.143Z,15.38
2022-10-22T02:24:16.142Z,15.36
2022-10-22T02:25:16.135Z,15.36
2022-10-22T02:26:16.133Z,15.35
2022-10-22T02:27:16.095Z,15.38
2022-10-22T02:28:16.091Z,15.35
2022-10-22T02:29:16.083Z,15.36
2022-10-22T02:31:16.107Z,15.38
2022-10-22T02:32:16.024Z,15.38
2022-10-22T02:33:16.014Z,15.36
2022-10-22T02:34:16.004Z,15.38
2022-10-22T02:35:15.997Z,15.38
2022-10-22T02:36:15.985Z,15.39
2022-10-22T02:37:15.995Z,15.39
2022-10-22T02:38:15.945Z,15.39
2022-10-22T02:40:15.928Z,15.39
2022-10-22T02:41:15.927Z,15.38
2022-10-22T02:42:15.893Z,15.36
2022-10-22T02:43:15.882Z,15.33
2022-10-22T02:44:15.866Z,15.33
2022-10-22T02:45:15.865Z,15.33
2022-10-22T02:46:15.858Z,15.35
2022-10-22T02:47:15.817Z,15.33
2022-10-22T02:48:15.835Z,15.30
2022-10-22T02:49:15.787Z,15.30
2022-10-22T02:50:15.788Z,15.27
2022-10-22T02:51:15.789Z,15.28
2022-10-22T02:52:15.764Z,15.27
2022-10-22T02:53:15.739Z,15.24
2022-10-22T02:54:15.739Z,15.26
2022-10-22T02:55:15.717Z,15.27
2022-10-22T02:56:15.701Z,15.27
2022-10-22T02:57:15.759Z,15.27
2022-10-22T02:58:15.678Z,15.26
2022-10-22T02:59:15.660Z,15.23
2022-10-22T03:00:15.649Z,15.24
2022-10-22T03:01:16.325Z,15.23
2022-10-22T03:02:15.633Z,15.26
2022-10-22T03:03:15.602Z,15.26
2022-10-22T03:04:15.603Z,15.28
2022-10-22T03:05:15.589Z,15.26
2022-10-22T03:06:15.706Z,15.26
2022-10-22T03:07:15.551Z,15.24
2022-10-22T03:08:15.542Z,15.28
2022-10-22T03:09:15.520Z,15.24
2022-10-22T03:10:15.512Z,15.26
2022-10-22T03:11:15.522Z,15.26
2022-10-22T03:12:15.489Z,15.24
2022-10-22T03:13:15.471Z,15.24
2022-10-22T03:14:15.463Z,15.23
2022-10-22T03:15:15.475Z,15.19
2022-10-22T03:16:15.455Z,15.17
2022-10-22T03:17:15.412Z,15.17
2022-10-22T03:18:15.412Z,15.13
2022-10-22T03:19:15.393Z,15.13
2022-10-22T03:20:15.384Z,15.11
2022-10-22T03:21:15.392Z,15.11
2022-10-22T03:22:15.353Z,15.12
2022-10-22T03:23:15.334Z,15.09
2022-10-22T03:24:15.323Z,15.08
2022-10-22T03:25:15.305Z,15.08
2022-10-22T03:26:15.314Z,15.09
2022-10-22T03:27:15.275Z,15.06
2022-10-22T03:28:15.265Z,15.03
2022-10-22T03:29:15.267Z,15.03
2022-10-22T03:30:15.245Z,15.03
2022-10-22T03:31:15.246Z,15.02
2022-10-22T03:32:15.215Z,15.01
2022-10-22T03:33:15.195Z,15.02
2022-10-22T03:34:15.190Z,15.02
2022-10-22T03:35:15.166Z,15.02
2022-10-22T03:36:15.176Z,15.03
2022-10-22T03:37:15.154Z,15.05
2022-10-22T03:38:15.136Z,15.01
2022-10-22T03:39:15.117Z,15.03
2022-10-22T03:40:15.105Z,15.03
2022-10-22T03:41:15.116Z,15.03
2022-10-22T03:42:15.079Z,15.05
2022-10-22T03:43:15.069Z,15.06
2022-10-22T03:44:15.057Z,15.06
2022-10-22T03:45:15.052Z,15.09
2022-10-22T03:46:15.052Z,15.11
2022-10-22T03:47:15.009Z,15.09
2022-10-22T03:48:14.998Z,15.13
2022-10-22T03:49:14.977Z,15.12
2022-10-22T03:50:14.981Z,15.11
2022-10-22T03:51:14.978Z,15.13
2022-10-22T03:52:14.939Z,15.17
2022-10-22T03:53:14.931Z,15.15
2022-10-22T03:54:14.918Z,15.17
2022-10-22T03:55:14.899Z,15.17
2022-10-22T03:56:14.906Z,15.17
2022-10-22T03:57:14.869Z,15.20
2022-10-22T03:58:14.861Z,15.20
2022-10-22T03:59:14.847Z,15.19
2022-10-22T04:00:14.851Z,15.19
2022-10-22T04:01:14.892Z,15.17
2022-10-22T04:02:14.811Z,15.19
2022-10-22T04:03:14.782Z,15.19
2022-10-22T04:04:14.781Z,15.19
2022-10-22T04:06:14.764Z,15.15
2022-10-22T04:07:14.731Z,15.17
2022-10-22T04:08:14.730Z,15.13
2022-10-22T04:09:14.848Z,15.13
2022-10-22T04:10:14.708Z,15.13
2022-10-22T04:11:14.703Z,15.15
2022-10-22T04:12:14.672Z,15.13
2022-10-22T04:13:14.643Z,15.13
2022-10-22T04:14:14.645Z,15.09
2022-10-22T04:15:14.622Z,15.11
2022-10-22T04:16:14.625Z,15.09
2022-10-22T04:17:14.601Z,15.11
2022-10-22T04:18:14.593Z,15.11
2022-10-22T04:19:14.573Z,15.08
2022-10-22T04:20:14.564Z,15.06
2022-10-22T04:21:14.578Z,15.05
2022-10-22T04:22:14.534Z,15.06
2022-10-22T04:23:14.516Z,15.09
2022-10-22T04:24:14.504Z,15.05
2022-10-22T04:25:14.526Z,15.05
2022-10-22T04:26:14.494Z,15.05
2022-10-22T04:27:14.464Z,15.05
2022-10-22T04:28:14.465Z,15.03
2022-10-22T04:29:16.145Z,15.01
2022-10-22T04:30:14.426Z,15.02
2022-10-22T04:31:14.434Z,14.98
2022-10-22T04:32:14.403Z,14.98
2022-10-22T04:33:14.405Z,14.93
2022-10-22T04:34:14.378Z,14.91
2022-10-22T04:35:14.424Z,14.90
2022-10-22T04:36:14.360Z,14.87
2022-10-22T04:37:14.362Z,14.90
2022-10-22T04:38:14.351Z,14.88
2022-10-22T04:39:14.302Z,14.88
2022-10-22T04:40:14.293Z,14.90
2022-10-22T04:41:14.297Z,14.84
2022-10-22T04:42:14.287Z,14.84
2022-10-22T04:43:14.240Z,14.88
2022-10-22T04:44:17.021Z,14.84
2022-10-22T04:45:14.229Z,14.83
2022-10-22T04:46:14.235Z,14.83
2022-10-22T04:47:14.189Z,14.83
2022-10-22T04:48:14.203Z,14.84
2022-10-22T04:49:14.182Z,14.83
2022-10-22T04:50:14.158Z,14.80
2022-10-22T04:51:14.169Z,14.74
2022-10-22T04:52:14.131Z,14.78
2022-10-22T04:53:14.110Z,14.72
2022-10-22T04:54:15.025Z,14.71
2022-10-22T04:55:14.080Z,14.71
2022-10-22T04:56:14.094Z,14.72
2022-10-22T04:57:14.053Z,14.71
2022-10-22T04:58:14.052Z,14.72
2022-10-22T04:59:14.033Z,14.71
2022-10-22T05:00:14.019Z,14.69
2022-10-22T05:01:14.102Z,14.69
2022-10-22T05:02:13.993Z,14.69
2022-10-22T05:03:13.972Z,14.69
2022-10-22T05:04:13.963Z,14.64
2022-10-22T05:05:13.941Z,14.65
2022-10-22T05:06:14.165Z,14.65
2022-10-22T05:07:13.920Z,14.62
2022-10-22T05:08:13.914Z,14.60
2022-10-22T05:09:13.957Z,14.57
2022-10-22T05:10:13.886Z,14.61
2022-10-22T05:11:13.907Z,14.57
2022-10-22T05:13:25.386Z,14.60
2022-10-22T05:14:23.644Z,14.61
2022-10-22T05:15:23.635Z,14.57
2022-10-22T05:16:23.637Z,14.60
2022-10-22T05:17:23.606Z,14.57
2022-10-22T05:18:23.595Z,14.61
2022-10-22T05:19:23.585Z,14.57
2022-10-22T05:20:23.567Z,14.61
2022-10-22T05:21:23.576Z,14.64
2022-10-22T05:22:23.539Z,14.62
2022-10-22T05:23:23.527Z,14.61
2022-10-22T05:24:23.509Z,14.62
2022-10-22T05:25:23.499Z,14.64
2022-10-22T05:26:23.499Z,14.62
2022-10-22T05:27:23.483Z,14.62
2022-10-22T05:28:23.468Z,14.61
2022-10-22T05:29:23.448Z,14.62
2022-10-22T05:30:23.428Z,14.60
2022-10-22T05:31:23.446Z,14.62
2022-10-22T05:32:23.407Z,14.61
2022-10-22T05:33:24.184Z,14.57
2022-10-22T05:34:23.384Z,14.57
2022-10-22T05:35:23.374Z,14.60
2022-10-22T05:36:23.371Z,14.60
2022-10-22T05:37:23.346Z,14.57
2022-10-22T05:38:23.320Z,14.57
2022-10-22T05:39:23.318Z,14.61
2022-10-22T05:40:30.413Z,14.61
2022-10-22T05:41:24.311Z,14.60
2022-10-22T05:42:23.285Z,14.60
2022-10-22T05:43:23.262Z,14.57
2022-10-22T05:44:23.255Z,14.57
2022-10-22T05:45:23.239Z,14.60
2022-10-22T05:46:23.300Z,14.54
2022-10-22T05:47:23.212Z,14.60
2022-10-22T05:48:23.260Z,14.57
2022-10-22T05:49:23.182Z,14.57
2022-10-22T05:50:23.162Z,14.61
2022-10-22T05:51:23.180Z,14.61
2022-10-22T05:52:23.143Z,14.62
2022-10-22T05:53:23.123Z,14.62
2022-10-22T05:54:23.114Z,14.62
2022-10-22T05:55:23.103Z,14.61
2022-10-22T05:56:23.103Z,14.64
2022-10-22T05:57:23.079Z,14.64
2022-10-22T05:58:23.064Z,14.65
2022-10-22T05:59:23.053Z,14.65
2022-10-22T06:00:23.033Z,14.65
2022-10-22T06:01:23.073Z,14.65
2022-10-22T06:02:23.035Z,14.64
2022-10-22T06:03:22.994Z,14.67
2022-10-22T06:04:22.973Z,14.67
2022-10-22T06:05:22.972Z,14.69
2022-10-22T06:06:22.967Z,14.71
2022-10-22T06:07:22.946Z,14.68
2022-10-22T06:08:22.944Z,14.68
2022-10-22T06:09:22.971Z,14.71
2022-10-22T06:10:22.902Z,14.72
2022-10-22T06:11:22.905Z,14.75
2022-10-22T06:12:22.904Z,14.72
2022-10-22T06:13:22.866Z,14.74
2022-10-22T06:14:22.846Z,14.74
2022-10-22T06:15:22.837Z,14.74
2022-10-22T06:16:22.856Z,14.75
2022-10-22T06:17:22.877Z,14.74
2022-10-22T06:18:22.793Z,14.72
2022-10-22T06:19:22.793Z,14.74
2022-10-22T06:20:22.765Z,14.72
2022-10-22T06:21:22.768Z,14.74
2022-10-22T06:22:22.738Z,14.71
2022-10-22T06:23:22.727Z,14.71
2022-10-22T06:24:22.710Z,14.71
2022-10-22T06:25:22.699Z,14.74
2022-10-22T06:26:22.709Z,14.74
2022-10-22T06:27:22.670Z,14.74
2022-10-22T06:29:22.658Z,14.75
2022-10-22T06:30:22.639Z,14.72
2022-10-22T06:31:22.648Z,14.72
2022-10-22T06:32:22.599Z,14.74
2022-10-22T06:33:22.598Z,14.72
2022-10-22T06:34:22.581Z,14.71
2022-10-22T06:35:22.569Z,14.71
2022-10-22T06:36:22.575Z,14.71
2022-10-22T06:37:22.542Z,14.71
2022-10-22T06:38:22.520Z,14.71
2022-10-22T06:39:22.598Z,14.72
2022-10-22T06:40:22.501Z,14.71
2022-10-22T06:41:24.392Z,14.72
2022-10-22T06:42:22.470Z,14.75
2022-10-22T06:43:22.460Z,14.78
2022-10-22T06:44:22.455Z,14.78
2022-10-22T06:45:22.432Z,14.80
2022-10-22T06:46:22.433Z,14.81
2022-10-22T06:47:22.404Z,14.83
2022-10-22T06:48:22.389Z,14.83
2022-10-22T06:49:22.383Z,14.87
2022-10-22T06:50:22.361Z,14.87
2022-10-22T06:51:22.379Z,14.88
2022-10-22T06:52:22.333Z,14.91
2022-10-22T06:53:22.338Z,14.95
2022-10-22T06:54:22.323Z,14.93
2022-10-22T06:55:22.302Z,14.94
2022-10-22T06:56:22.286Z,14.93
2022-10-22T06:57:22.294Z,14.98
2022-10-22T06:58:22.253Z,15.02
2022-10-22T06:59:22.246Z,15.03
2022-10-22T07:00:22.345Z,15.08
2022-10-22T07:01:22.317Z,15.05
2022-10-22T07:02:22.214Z,15.09
2022-10-22T07:03:22.194Z,15.11
2022-10-22T07:04:22.177Z,15.13
2022-10-22T07:05:22.165Z,15.17
2022-10-22T07:06:22.164Z,15.19
2022-10-22T07:07:22.155Z,15.20
2022-10-22T07:08:22.132Z,15.26
2022-10-22T07:09:22.167Z,15.20
2022-10-22T07:10:22.266Z,15.26
2022-10-22T07:11:22.092Z,15.28
2022-10-22T07:12:22.095Z,15.27
2022-10-22T07:13:22.056Z,15.28
2022-10-22T07:14:22.049Z,15.31
2022-10-22T07:15:22.036Z,15.33
2022-10-22T07:16:22.019Z,15.41
2022-10-22T07:17:22.026Z,15.41
2022-10-22T07:18:21.987Z,15.42
2022-10-22T07:19:21.978Z,15.46
2022-10-22T07:20:21.967Z,15.49
2022-10-22T07:21:21.959Z,15.51
2022-10-22T07:22:21.947Z,15.52
2022-10-22T07:23:21.927Z,15.54
2022-10-22T07:24:21.908Z,15.56
2022-10-22T07:25:21.906Z,15.59
2022-10-22T07:26:21.897Z,15.59
2022-10-22T07:27:21.888Z,15.61
2022-10-22T07:28:21.859Z,15.63
2022-10-22T07:29:21.848Z,15.66
2022-10-22T07:30:21.828Z,15.68
2022-10-22T07:31:21.829Z,15.72
2022-10-22T07:32:23.933Z,15.75
2022-10-22T07:33:21.790Z,15.76
2022-10-22T07:34:21.783Z,15.79
2022-10-22T07:35:21.768Z,15.79
2022-10-22T07:36:21.748Z,15.84
2022-10-22T07:37:21.763Z,15.82
2022-10-22T07:38:21.760Z,15.84
2022-10-22T07:39:21.719Z,15.84
2022-10-22T07:40:21.701Z,15.84
2022-10-22T07:41:21.702Z,15.85
2022-10-22T07:42:21.698Z,15.84
2022-10-22T07:43:21.661Z,15.82
2022-10-22T07:44:21.649Z,15.85
2022-10-22T07:45:21.641Z,15.89
2022-10-22T07:46:21.632Z,15.92
2022-10-22T07:47:21.610Z,15.92
2022-10-22T07:48:21.592Z,15.96
2022-10-22T07:49:21.592Z,15.99
2022-10-22T07:50:21.573Z,15.99
2022-10-22T07:51:21.553Z,16.00
2022-10-22T07:52:21.563Z,15.99
2022-10-22T07:53:21.535Z,16.00
2022-10-22T07:54:21.513Z,15.97
2022-10-22T07:55:21.503Z,15.96
2022-10-22T07:56:21.485Z,15.94
2022-10-22T07:57:21.495Z,15.96
2022-10-22T07:58:21.456Z,15.94
2022-10-22T07:59:21.445Z,15.93
2022-10-22T08:00:24.489Z,15.96
2022-10-22T08:01:21.479Z,15.97
2022-10-22T08:02:21.426Z,15.99
2022-10-22T08:03:21.396Z,16.01
2022-10-22T08:04:21.377Z,16.01
2022-10-22T08:05:21.374Z,16.04
2022-10-22T08:06:21.355Z,16.07
2022-10-22T08:07:21.369Z,16.09
2022-10-22T08:08:21.326Z,16.11
2022-10-22T08:09:21.317Z,16.14
2022-10-22T08:10:21.350Z,16.12
2022-10-22T08:11:21.287Z,16.16
2022-10-22T08:12:21.287Z,16.14
2022-10-22T08:13:21.267Z,16.15
2022-10-22T08:14:21.247Z,16.15
2022-10-22T08:15:21.237Z,16.22
2022-10-22T08:16:21.230Z,16.26
2022-10-22T08:17:21.227Z,16.27
2022-10-22T08:18:21.208Z,16.26
2022-10-22T08:19:21.185Z,16.33
2022-10-22T08:20:21.179Z,16.38
2022-10-22T08:21:21.157Z,16.37
2022-10-22T08:22:21.150Z,16.40
2022-10-22T08:23:25.853Z,16.40
2022-10-22T08:24:22.110Z,16.45
2022-10-22T08:25:21.117Z,16.44
2022-10-22T08:26:21.081Z,16.45
2022-10-22T08:27:21.095Z,16.48
2022-10-22T08:28:22.136Z,16.45
2022-10-22T08:29:21.050Z,16.50
2022-10-22T08:30:21.033Z,16.49
2022-10-22T08:31:21.020Z,16.49
2022-10-22T08:32:21.057Z,16.50
2022-10-22T08:33:20.994Z,16.55
2022-10-22T08:34:20.989Z,16.53
2022-10-22T08:35:20.971Z,16.55
2022-10-22T08:36:20.952Z,16.58
2022-10-22T08:37:20.962Z,16.63
2022-10-22T08:38:20.922Z,16.65
2022-10-22T08:39:20.913Z,16.62
2022-10-22T08:40:20.902Z,16.68
2022-10-22T08:41:20.890Z,16.70
2022-10-22T08:42:20.894Z,16.70
2022-10-22T08:43:20.866Z,16.60
2022-10-22T08:44:20.845Z,16.60
2022-10-22T08:45:20.833Z,16.62
2022-10-22T08:46:20.826Z,16.62
2022-10-22T08:47:22.426Z,16.67
2022-10-22T08:48:20.796Z,16.73
2022-10-22T08:49:20.784Z,16.71
2022-10-22T08:50:20.766Z,16.74
2022-10-22T08:51:20.758Z,16.78
2022-10-22T08:52:20.745Z,16.85
2022-10-22T08:53:20.725Z,16.89
2022-10-22T08:54:20.713Z,16.93
2022-10-22T08:55:20.707Z,16.92
2022-10-22T08:56:20.676Z,16.93
2022-10-22T08:57:20.740Z,16.99
2022-10-22T08:58:20.658Z,17.08
2022-10-22T08:59:20.647Z,17.13
2022-10-22T09:00:20.629Z,17.15
2022-10-22T09:01:20.637Z,17.17
2022-10-22T09:02:20.607Z,17.25
2022-10-22T09:03:20.606Z,17.28
2022-10-22T09:04:20.578Z,17.32
2022-10-22T09:05:20.568Z,17.33
2022-10-22T09:06:20.569Z,17.35
2022-10-22T09:07:20.538Z,17.32
2022-10-22T09:08:20.520Z,17.32
2022-10-22T09:09:20.517Z,17.32
2022-10-22T09:10:20.497Z,17.35
2022-10-22T09:11:20.499Z,17.35
2022-10-22T09:12:20.627Z,17.35
2022-10-22T09:13:20.459Z,17.38
2022-10-22T09:14:20.452Z,17.40
2022-10-22T09:15:20.430Z,17.32
2022-10-22T09:16:20.440Z,17.30
2022-10-22T09:17:20.400Z,17.23
2022-10-22T09:18:20.390Z,17.22
2022-10-22T09:19:20.380Z,17.23
2022-10-22T09:20:20.370Z,17.32
2022-10-22T09:21:20.361Z,17.36
2022-10-22T09:22:20.342Z,17.33
2022-10-22T09:23:20.325Z,17.33
2022-10-22T09:24:20.320Z,17.35
2022-10-22T09:25:20.303Z,17.35
2022-10-22T09:26:20.304Z,17.33
2022-10-22T09:27:20.275Z,17.35
2022-10-22T09:28:20.262Z,17.35
2022-10-22T09:29:20.261Z,17.35
2022-10-22T09:30:20.239Z,17.29
2022-10-22T09:31:20.243Z,17.26
2022-10-22T09:32:20.211Z,17.28
2022-10-22T09:33:22.657Z,17.30
2022-10-22T09:34:20.185Z,17.29
2022-10-22T09:35:20.164Z,17.36
2022-10-22T09:36:20.175Z,17.40
2022-10-22T09:37:20.145Z,17.46
2022-10-22T09:38:20.136Z,17.46
2022-10-22T09:39:20.139Z,17.44
2022-10-22T09:40:20.107Z,17.33
2022-10-22T09:41:20.106Z,17.30
2022-10-22T09:42:20.087Z,17.33
2022-10-22T09:43:20.069Z,17.35
2022-10-22T09:44:20.057Z,17.38
2022-10-22T09:45:20.037Z,17.44
2022-10-22T09:46:20.046Z,17.41
2022-10-22T09:47:20.015Z,17.43
2022-10-22T09:48:20.005Z,17.41
2022-10-22T09:49:19.992Z,17.47
2022-10-22T09:50:19.977Z,17.47
2022-10-22T09:51:19.976Z,17.48
2022-10-22T09:52:19.950Z,17.48
2022-10-22T09:53:19.928Z,17.54
2022-10-22T09:54:19.932Z,17.55
2022-10-22T09:55:19.913Z,17.62
2022-10-22T09:56:19.917Z,17.64
2022-10-22T09:57:19.891Z,17.71
2022-10-22T09:58:19.873Z,17.78
2022-10-22T09:59:19.850Z,17.84
2022-10-22T10:00:19.851Z,17.87
2022-10-22T10:01:19.842Z,17.88
2022-10-22T10:02:33.561Z,17.91
2022-10-22T10:03:20.909Z,17.85
2022-10-22T10:04:19.815Z,17.85
2022-10-22T10:05:19.771Z,17.82
2022-10-22T10:06:19.786Z,17.82
2022-10-22T10:07:19.749Z,17.88
2022-10-22T10:08:19.739Z,17.82
2022-10-22T10:09:19.784Z,17.84
2022-10-22T10:10:19.719Z,17.84
2022-10-22T10:11:19.712Z,17.84
2022-10-22T10:12:19.684Z,17.82
2022-10-22T10:13:19.666Z,17.89
2022-10-22T10:14:19.663Z,17.89
2022-10-22T10:15:19.646Z,17.87
2022-10-22T10:16:19.645Z,17.85
2022-10-22T10:17:19.618Z,17.88
2022-10-22T10:18:19.605Z,17.89
2022-10-22T10:19:19.592Z,17.88
2022-10-22T10:20:19.582Z,17.89
2022-10-22T10:21:19.589Z,17.81
2022-10-22T10:22:19.554Z,17.87
2022-10-22T10:23:22.960Z,17.88
2022-10-22T10:24:20.528Z,17.85
2022-10-22T10:25:19.505Z,17.79
2022-10-22T10:26:19.515Z,17.92
2022-10-22T10:27:19.476Z,17.94
2022-10-22T10:28:19.466Z,17.91
2022-10-22T10:29:19.448Z,17.89
2022-10-22T10:30:19.438Z,17.92
2022-10-22T10:31:19.437Z,17.99
2022-10-22T10:32:22.316Z,17.99
2022-10-22T10:33:20.398Z,18.04
2022-10-22T10:34:19.389Z,18.10
2022-10-22T10:35:19.397Z,18.15
2022-10-22T10:36:19.397Z,18.15
2022-10-22T10:37:19.347Z,18.17
2022-10-22T10:38:19.449Z,18.18
2022-10-22T10:39:19.326Z,18.24
2022-10-22T10:40:19.311Z,18.28
2022-10-22T10:41:19.304Z,18.33
2022-10-22T10:42:19.280Z,18.39
2022-10-22T10:43:19.278Z,18.40
2022-10-22T10:44:19.261Z,18.33
2022-10-22T10:45:19.238Z,18.22
2022-10-22T10:46:19.284Z,18.12
2022-10-22T10:47:19.208Z,18.15
2022-10-22T10:48:19.202Z,18.18
2022-10-22T10:49:19.181Z,18.19
2022-10-22T10:50:19.173Z,18.18
2022-10-22T10:51:19.172Z,18.25
2022-10-22T10:52:21.353Z,18.27
2022-10-22T10:53:19.131Z,18.28
2022-10-22T10:54:19.123Z,18.25
2022-10-22T10:55:19.103Z,18.24
2022-10-22T10:56:19.112Z,18.10
2022-10-22T10:57:19.074Z,18.09
2022-10-22T10:58:19.073Z,18.06
2022-10-22T10:59:19.054Z,18.10
2022-10-22T11:00:19.042Z,18.06
2022-10-22T11:01:19.066Z,18.04
2022-10-22T11:02:19.015Z,17.97
2022-10-22T11:03:19.025Z,18.03
2022-10-22T11:04:18.985Z,18.13
2022-10-22T11:05:18.966Z,18.15
2022-10-22T11:06:21.575Z,18.09
2022-10-22T11:07:33.525Z,18.12
2022-10-22T11:08:19.936Z,18.17
2022-10-22T11:09:18.979Z,18.19
2022-10-22T11:10:18.907Z,18.19
2022-10-22T11:11:18.907Z,18.21
2022-10-22T11:12:18.876Z,18.21
2022-10-22T11:14:30.073Z,18.19
2022-10-22T11:15:28.666Z,18.22
2022-10-22T11:16:28.659Z,18.22
2022-10-22T11:17:28.631Z,18.27
2022-10-22T11:18:28.621Z,18.28
2022-10-22T11:19:49.608Z,18.28
2022-10-22T11:20:29.598Z,18.24
2022-10-22T11:21:28.601Z,18.19
2022-10-22T11:22:28.571Z,18.09
2022-10-22T11:23:28.553Z,18.00
2022-10-22T11:24:28.543Z,17.84
2022-10-22T11:25:28.523Z,17.88
2022-10-22T11:26:28.533Z,17.92
2022-10-22T11:27:28.503Z,18.02
2022-10-22T11:28:28.492Z,17.97
2022-10-22T11:29:30.724Z,17.97
2022-10-22T11:30:28.463Z,18.03
2022-10-22T11:31:28.454Z,18.04
2022-10-22T11:32:28.454Z,18.04
2022-10-22T11:33:28.424Z,18.06
2022-10-22T11:34:33.730Z,18.06
2022-10-22T11:35:29.398Z,18.03
2022-10-22T11:36:28.462Z,18.04
2022-10-22T11:37:28.373Z,18.07
2022-10-22T11:38:30.653Z,18.12
2022-10-22T11:39:28.345Z,18.15
2022-10-22T11:40:28.333Z,18.18
2022-10-22T11:41:28.326Z,18.09
2022-10-22T11:42:28.306Z,18.09
2022-10-22T11:43:28.286Z,18.06
2022-10-22T11:44:28.276Z,18.07
2022-10-22T11:45:28.256Z,18.12
2022-10-22T11:46:28.268Z,18.13
2022-10-22T11:47:28.246Z,18.15
2022-10-22T11:48:28.227Z,18.22
2022-10-22T11:49:28.209Z,18.28
2022-10-22T11:50:28.216Z,18.29
2022-10-22T11:51:28.189Z,18.24
2022-10-22T11:52:28.172Z,18.09
2022-10-22T11:53:28.158Z,18.04
2022-10-22T11:54:28.146Z,17.94
2022-10-22T11:55:28.150Z,17.94
2022-10-22T11:56:28.120Z,17.97
2022-10-22T11:57:28.108Z,18.06
2022-10-22T11:58:28.098Z,18.04
2022-10-22T11:59:28.070Z,18.00
2022-10-22T12:00:28.082Z,18.00
2022-10-22T12:01:28.090Z,18.04
2022-10-22T12:02:28.042Z,18.04
2022-10-22T12:03:28.021Z,18.09
2022-10-22T12:04:28.026Z,18.10
2022-10-22T12:05:28.018Z,18.07
2022-10-22T12:06:27.993Z,18.07
2022-10-22T12:07:27.973Z,18.12
2022-10-22T12:08:27.973Z,18.15
2022-10-22T12:09:27.953Z,18.17
2022-10-22T12:10:27.954Z,18.06
2022-10-22T12:11:27.921Z,18.06
2022-10-22T12:12:27.904Z,18.10
2022-10-22T12:13:27.885Z,18.10
2022-10-22T12:14:27.884Z,18.12
2022-10-22T12:15:27.893Z,18.15
2022-10-22T12:16:37.862Z,18.15
2022-10-22T12:17:28.834Z,18.09
2022-10-22T12:18:27.832Z,18.07
2022-10-22T12:19:27.807Z,18.02
2022-10-22T12:20:27.794Z,18.09
2022-10-22T12:21:27.796Z,18.09
2022-10-22T12:22:27.772Z,18.06
2022-10-22T12:23:27.757Z,18.09
2022-10-22T12:24:27.752Z,18.09
2022-10-22T12:25:30.078Z,18.10
2022-10-22T12:26:28.738Z,18.12
2022-10-22T12:27:27.707Z,18.10
2022-10-22T12:28:27.687Z,18.13
2022-10-22T12:29:27.669Z,18.13
2022-10-22T12:30:27.658Z,18.15
2022-10-22T12:31:27.657Z,18.17
2022-10-22T12:32:27.636Z,18.19
2022-10-22T12:33:27.619Z,18.17
2022-10-22T12:34:27.618Z,18.22
2022-10-22T12:35:27.588Z,18.19
2022-10-22T12:36:27.609Z,18.17
2022-10-22T12:37:27.570Z,18.21
2022-10-22T12:38:27.550Z,18.27
2022-10-22T12:39:27.549Z,18.28
2022-10-22T12:40:27.539Z,18.33
2022-10-22T12:41:27.530Z,18.31
2022-10-22T12:42:27.499Z,18.39
2022-10-22T12:43:27.484Z,18.37
2022-10-22T12:44:27.471Z,18.34
2022-10-22T12:45:27.458Z,18.37
2022-10-22T12:46:27.463Z,18.43
2022-10-22T12:47:27.470Z,18.47
2022-10-22T12:48:27.411Z,18.50
2022-10-22T12:49:27.411Z,18.52
2022-10-22T12:50:27.392Z,18.55
2022-10-22T12:51:27.421Z,18.50
2022-10-22T12:52:27.362Z,18.47
2022-10-22T12:53:27.350Z,18.47
2022-10-22T12:54:27.333Z,18.46
2022-10-22T12:55:27.321Z,18.40
2022-10-22T12:56:27.331Z,18.40
2022-10-22T12:57:27.296Z,18.42
2022-10-22T12:58:27.286Z,18.46